sensor_id;sensor_type;location;lat;lon;timestamp;temperature;humidity
18611;DHT22;9435;52.122;5.502;2023-07-31T00:00:08;15.80;99.90
18611;DHT22;9435;52.122;5.502;2023-07-31T00:02:35;15.70;99.90
18611;DHT22;9435;52.122;5.502;2023-07-31T00:05:02;15.80;99.90
18611;DHT22;9435;52.122;5.502;2023-07-31T00:07:30;15.80;99.90
18611;DHT22;9435;52.122;5.502;2023-07-31T00:09:57;15.70;99.90
18611;DHT22;9435;52.122;5.502;2023-07-31T00:12:26;15.80;99.90
18611;DHT22;9435;52.122;5.502;2023-07-31T00:14:53;15.80;99.90
18611;DHT22;9435;52.122;5.502;2023-07-31T00:17:20;15.80;99.90
18611;DHT22;9435;52.122;5.502;2023-07-31T00:19:47;15.90;99.90
18611;DHT22;9435;52.122;5.502;2023-07-31T00:22:16;15.90;99.90
18611;DHT22;9435;52.122;5.502;2023-07-31T00:24:43;15.90;99.90
18611;DHT22;9435;52.122;5.502;2023-07-31T00:27:10;16.00;99.90
18611;DHT22;9435;52.122;5.502;2023-07-31T00:29:39;16.00;99.90
18611;DHT22;9435;52.122;5.502;2023-07-31T00:32:06;16.00;99.90
18611;DHT22;9435;52.122;5.502;2023-07-31T00:34:33;16.00;99.90
18611;DHT22;9435;52.122;5.502;2023-07-31T00:37:00;16.00;99.90
18611;DHT22;9435;52.122;5.502;2023-07-31T00:39:27;16.00;99.90
18611;DHT22;9435;52.122;5.502;2023-07-31T00:41:54;16.00;99.90
18611;DHT22;9435;52.122;5.502;2023-07-31T00:44:21;16.00;99.90
18611;DHT22;9435;52.122;5.502;2023-07-31T00:46:50;16.00;99.90
18611;DHT22;9435;52.122;5.502;2023-07-31T00:49:18;16.00;99.90
18611;DHT22;9435;52.122;5.502;2023-07-31T00:51:45;16.00;99.90
18611;DHT22;9435;52.122;5.502;2023-07-31T00:54:11;16.10;99.90
18611;DHT22;9435;52.122;5.502;2023-07-31T00:56:38;16.20;99.90
18611;DHT22;9435;52.122;5.502;2023-07-31T00:59:07;16.20;99.90
18611;DHT22;9435;52.122;5.502;2023-07-31T01:01:34;16.20;99.90
18611;DHT22;9435;52.122;5.502;2023-07-31T01:04:02;16.30;99.90
18611;DHT22;9435;52.122;5.502;2023-07-31T01:06:34;16.40;99.90
18611;DHT22;9435;52.122;5.502;2023-07-31T01:09:06;16.40;99.90
18611;DHT22;9435;52.122;5.502;2023-07-31T01:11:37;16.50;99.90
18611;DHT22;9435;52.122;5.502;2023-07-31T01:14:05;16.50;99.90
18611;DHT22;9435;52.122;5.502;2023-07-31T01:16:32;16.50;99.90
18611;DHT22;9435;52.122;5.502;2023-07-31T01:18:59;16.60;99.90
18611;DHT22;9435;52.122;5.502;2023-07-31T01:21:46;16.60;99.90
18611;DHT22;9435;52.122;5.502;2023-07-31T01:24:25;16.60;99.90
18611;DHT22;9435;52.122;5.502;2023-07-31T01:27:01;16.70;99.90
18611;DHT22;9435;52.122;5.502;2023-07-31T01:29:36;16.70;99.90
18611;DHT22;9435;52.122;5.502;2023-07-31T01:32:05;16.70;99.90
18611;DHT22;9435;52.122;5.502;2023-07-31T01:34:33;16.70;99.90
18611;DHT22;9435;52.122;5.502;2023-07-31T01:37:01;16.70;99.90
18611;DHT22;9435;52.122;5.502;2023-07-31T01:39:28;16.70;99.90
18611;DHT22;9435;52.122;5.502;2023-07-31T01:41:57;16.70;99.90
18611;DHT22;9435;52.122;5.502;2023-07-31T01:44:24;16.70;99.90
18611;DHT22;9435;52.122;5.502;2023-07-31T01:46:51;16.70;99.90
18611;DHT22;9435;52.122;5.502;2023-07-31T01:49:18;16.70;99.90
18611;DHT22;9435;52.122;5.502;2023-07-31T01:51:45;16.70;99.90
18611;DHT22;9435;52.122;5.502;2023-07-31T01:54:12;16.70;99.90
18611;DHT22;9435;52.122;5.502;2023-07-31T01:56:39;16.80;99.90
18611;DHT22;9435;52.122;5.502;2023-07-31T01:59:07;16.70;99.90
18611;DHT22;9435;52.122;5.502;2023-07-31T02:01:34;16.70;99.90
18611;DHT22;9435;52.122;5.502;2023-07-31T02:04:01;16.70;99.90
18611;DHT22;9435;52.122;5.502;2023-07-31T02:06:30;16.80;99.90
18611;DHT22;9435;52.122;5.502;2023-07-31T02:08:57;16.70;99.90
18611;DHT22;9435;52.122;5.502;2023-07-31T02:11:24;16.70;99.90
18611;DHT22;9435;52.122;5.502;2023-07-31T02:13:51;16.70;99.90
18611;DHT22;9435;52.122;5.502;2023-07-31T02:16:20;16.70;99.90
18611;DHT22;9435;52.122;5.502;2023-07-31T02:18:47;16.70;99.90
18611;DHT22;9435;52.122;5.502;2023-07-31T02:21:14;16.70;99.90
18611;DHT22;9435;52.122;5.502;2023-07-31T02:23:40;16.70;99.90
18611;DHT22;9435;52.122;5.502;2023-07-31T02:26:07;16.70;99.90
18611;DHT22;9435;52.122;5.502;2023-07-31T02:28:34;16.60;99.90
18611;DHT22;9435;52.122;5.502;2023-07-31T02:31:01;16.60;99.90
18611;DHT22;9435;52.122;5.502;2023-07-31T02:33:29;16.60;99.90
18611;DHT22;9435;52.122;5.502;2023-07-31T02:35:56;16.60;99.90
18611;DHT22;9435;52.122;5.502;2023-07-31T02:38:24;16.60;99.90
18611;DHT22;9435;52.122;5.502;2023-07-31T02:40:51;16.60;99.90
18611;DHT22;9435;52.122;5.502;2023-07-31T02:43:18;16.60;99.90
18611;DHT22;9435;52.122;5.502;2023-07-31T02:45:45;16.60;99.90
18611;DHT22;9435;52.122;5.502;2023-07-31T02:48:12;16.60;99.90
18611;DHT22;9435;52.122;5.502;2023-07-31T02:50:40;16.60;99.90
18611;DHT22;9435;52.122;5.502;2023-07-31T02:53:07;16.60;99.90
18611;DHT22;9435;52.122;5.502;2023-07-31T02:55:34;16.60;99.90
18611;DHT22;9435;52.122;5.502;2023-07-31T02:58:01;16.70;99.90
18611;DHT22;9435;52.122;5.502;2023-07-31T03:00:28;16.60;99.90
18611;DHT22;9435;52.122;5.502;2023-07-31T03:02:55;16.60;99.90
18611;DHT22;9435;52.122;5.502;2023-07-31T03:05:22;16.60;99.90
18611;DHT22;9435;52.122;5.502;2023-07-31T03:07:51;16.60;99.90
18611;DHT22;9435;52.122;5.502;2023-07-31T03:10:18;16.60;99.90
18611;DHT22;9435;52.122;5.502;2023-07-31T03:12:46;16.60;99.90
18611;DHT22;9435;52.122;5.502;2023-07-31T03:15:13;16.60;99.90
18611;DHT22;9435;52.122;5.502;2023-07-31T03:17:41;16.60;99.90
18611;DHT22;9435;52.122;5.502;2023-07-31T03:20:08;16.60;99.90
18611;DHT22;9435;52.122;5.502;2023-07-31T03:22:36;16.60;99.90
18611;DHT22;9435;52.122;5.502;2023-07-31T03:25:05;16.60;99.90
18611;DHT22;9435;52.122;5.502;2023-07-31T03:27:33;16.50;99.90
18611;DHT22;9435;52.122;5.502;2023-07-31T03:30:00;16.50;99.90
18611;DHT22;9435;52.122;5.502;2023-07-31T03:32:27;16.60;99.90
18611;DHT22;9435;52.122;5.502;2023-07-31T03:34:54;16.50;99.90
18611;DHT22;9435;52.122;5.502;2023-07-31T03:37:21;16.50;99.90
18611;DHT22;9435;52.122;5.502;2023-07-31T03:39:48;16.50;99.90
18611;DHT22;9435;52.122;5.502;2023-07-31T03:42:17;16.50;99.90
18611;DHT22;9435;52.122;5.502;2023-07-31T03:44:44;16.50;99.90
18611;DHT22;9435;52.122;5.502;2023-07-31T03:47:11;16.40;99.90
18611;DHT22;9435;52.122;5.502;2023-07-31T03:49:38;16.40;99.90
18611;DHT22;9435;52.122;5.502;2023-07-31T03:52:06;16.50;99.90
18611;DHT22;9435;52.122;5.502;2023-07-31T03:54:33;16.40;99.90
18611;DHT22;9435;52.122;5.502;2023-07-31T03:57:00;16.40;99.90
18611;DHT22;9435;52.122;5.502;2023-07-31T03:59:28;16.40;99.90
18611;DHT22;9435;52.122;5.502;2023-07-31T04:01:55;16.40;99.90
18611;DHT22;9435;52.122;5.502;2023-07-31T04:04:22;16.40;99.90
18611;DHT22;9435;52.122;5.502;2023-07-31T04:06:50;16.40;99.90
18611;DHT22;9435;52.122;5.502;2023-07-31T04:09:17;16.40;99.90
18611;DHT22;9435;52.122;5.502;2023-07-31T04:11:44;16.40;99.90
18611;DHT22;9435;52.122;5.502;2023-07-31T04:14:11;16.40;99.90
18611;DHT22;9435;52.122;5.502;2023-07-31T04:16:39;16.30;99.90
18611;DHT22;9435;52.122;5.502;2023-07-31T04:19:06;16.30;99.90
18611;DHT22;9435;52.122;5.502;2023-07-31T04:21:33;16.30;99.90
18611;DHT22;9435;52.122;5.502;2023-07-31T04:24:00;16.30;99.90
18611;DHT22;9435;52.122;5.502;2023-07-31T04:26:27;16.30;99.90
18611;DHT22;9435;52.122;5.502;2023-07-31T04:28:54;16.30;99.90
18611;DHT22;9435;52.122;5.502;2023-07-31T04:31:21;16.30;99.90
18611;DHT22;9435;52.122;5.502;2023-07-31T04:33:50;16.30;99.90
18611;DHT22;9435;52.122;5.502;2023-07-31T04:36:17;16.30;99.90
18611;DHT22;9435;52.122;5.502;2023-07-31T04:38:44;16.30;99.90
18611;DHT22;9435;52.122;5.502;2023-07-31T04:41:11;16.30;99.90
18611;DHT22;9435;52.122;5.502;2023-07-31T04:43:38;16.40;99.90
18611;DHT22;9435;52.122;5.502;2023-07-31T04:46:06;16.40;99.90
18611;DHT22;9435;52.122;5.502;2023-07-31T04:48:33;16.40;99.90
18611;DHT22;9435;52.122;5.502;2023-07-31T04:51:02;16.40;99.90
18611;DHT22;9435;52.122;5.502;2023-07-31T04:53:29;16.40;99.90
18611;DHT22;9435;52.122;5.502;2023-07-31T04:55:56;16.40;99.90
18611;DHT22;9435;52.122;5.502;2023-07-31T04:58:23;16.40;99.90
18611;DHT22;9435;52.122;5.502;2023-07-31T05:00:50;16.40;99.90
18611;DHT22;9435;52.122;5.502;2023-07-31T05:03:17;16.40;99.90
18611;DHT22;9435;52.122;5.502;2023-07-31T05:05:44;16.40;99.90
18611;DHT22;9435;52.122;5.502;2023-07-31T05:08:13;16.40;99.90
18611;DHT22;9435;52.122;5.502;2023-07-31T05:10:40;16.40;99.90
18611;DHT22;9435;52.122;5.502;2023-07-31T05:13:07;16.40;99.90
18611;DHT22;9435;52.122;5.502;2023-07-31T05:15:34;16.40;99.90
18611;DHT22;9435;52.122;5.502;2023-07-31T05:18:01;16.40;99.90
18611;DHT22;9435;52.122;5.502;2023-07-31T05:20:28;16.30;99.90
18611;DHT22;9435;52.122;5.502;2023-07-31T05:22:55;16.30;99.90
18611;DHT22;9435;52.122;5.502;2023-07-31T05:25:23;16.30;99.90
18611;DHT22;9435;52.122;5.502;2023-07-31T05:27:50;16.30;99.90
18611;DHT22;9435;52.122;5.502;2023-07-31T05:30:17;16.30;99.90
18611;DHT22;9435;52.122;5.502;2023-07-31T05:32:44;16.30;99.90
18611;DHT22;9435;52.122;5.502;2023-07-31T05:35:11;16.30;99.90
18611;DHT22;9435;52.122;5.502;2023-07-31T05:37:38;16.30;99.90
18611;DHT22;9435;52.122;5.502;2023-07-31T05:40:07;16.30;99.90
18611;DHT22;9435;52.122;5.502;2023-07-31T05:42:35;16.30;99.90
18611;DHT22;9435;52.122;5.502;2023-07-31T05:45:05;16.30;99.90
18611;DHT22;9435;52.122;5.502;2023-07-31T05:47:32;16.30;99.90
18611;DHT22;9435;52.122;5.502;2023-07-31T05:49:59;16.30;99.90
18611;DHT22;9435;52.122;5.502;2023-07-31T05:52:27;16.30;99.90
18611;DHT22;9435;52.122;5.502;2023-07-31T05:54:54;16.30;99.90
18611;DHT22;9435;52.122;5.502;2023-07-31T05:57:22;16.30;99.90
18611;DHT22;9435;52.122;5.502;2023-07-31T05:59:50;16.40;99.90
18611;DHT22;9435;52.122;5.502;2023-07-31T06:02:19;16.40;99.90
18611;DHT22;9435;52.122;5.502;2023-07-31T06:04:46;16.30;99.90
18611;DHT22;9435;52.122;5.502;2023-07-31T06:07:13;16.30;99.90
18611;DHT22;9435;52.122;5.502;2023-07-31T06:09:40;16.40;99.90
18611;DHT22;9435;52.122;5.502;2023-07-31T06:12:08;16.40;99.90
18611;DHT22;9435;52.122;5.502;2023-07-31T06:14:35;16.40;99.90
18611;DHT22;9435;52.122;5.502;2023-07-31T06:17:04;16.40;99.90
18611;DHT22;9435;52.122;5.502;2023-07-31T06:19:31;16.40;99.90
18611;DHT22;9435;52.122;5.502;2023-07-31T06:21:58;16.40;99.90
18611;DHT22;9435;52.122;5.502;2023-07-31T06:24:25;16.40;99.90
18611;DHT22;9435;52.122;5.502;2023-07-31T06:26:52;16.40;99.90
18611;DHT22;9435;52.122;5.502;2023-07-31T06:29:19;16.40;99.90
18611;DHT22;9435;52.122;5.502;2023-07-31T06:31:46;16.50;99.90
18611;DHT22;9435;52.122;5.502;2023-07-31T06:34:14;16.50;99.90
18611;DHT22;9435;52.122;5.502;2023-07-31T06:36:41;16.50;99.90
18611;DHT22;9435;52.122;5.502;2023-07-31T06:39:08;16.50;99.90
18611;DHT22;9435;52.122;5.502;2023-07-31T06:41:35;16.50;99.90
18611;DHT22;9435;52.122;5.502;2023-07-31T06:44:03;16.50;99.90
18611;DHT22;9435;52.122;5.502;2023-07-31T06:46:30;16.50;99.90
18611;DHT22;9435;52.122;5.502;2023-07-31T06:48:57;16.60;99.90
18611;DHT22;9435;52.122;5.502;2023-07-31T06:51:25;16.60;99.90
18611;DHT22;9435;52.122;5.502;2023-07-31T06:53:52;16.60;99.90
18611;DHT22;9435;52.122;5.502;2023-07-31T06:56:21;16.60;99.90
18611;DHT22;9435;52.122;5.502;2023-07-31T06:58:48;16.60;99.90
18611;DHT22;9435;52.122;5.502;2023-07-31T07:01:15;16.60;99.90
18611;DHT22;9435;52.122;5.502;2023-07-31T07:03:42;16.70;99.90
18611;DHT22;9435;52.122;5.502;2023-07-31T07:06:09;16.70;99.90
18611;DHT22;9435;52.122;5.502;2023-07-31T07:08:37;16.80;99.90
18611;DHT22;9435;52.122;5.502;2023-07-31T07:11:04;16.80;99.90
18611;DHT22;9435;52.122;5.502;2023-07-31T07:13:31;16.80;99.90
18611;DHT22;9435;52.122;5.502;2023-07-31T07:15:58;16.90;99.90
18611;DHT22;9435;52.122;5.502;2023-07-31T07:18:26;16.90;99.90
18611;DHT22;9435;52.122;5.502;2023-07-31T07:20:54;16.90;99.90
18611;DHT22;9435;52.122;5.502;2023-07-31T07:23:23;16.90;99.90
18611;DHT22;9435;52.122;5.502;2023-07-31T07:25:51;16.90;99.90
18611;DHT22;9435;52.122;5.502;2023-07-31T07:28:18;16.90;99.90
18611;DHT22;9435;52.122;5.502;2023-07-31T07:30:50;16.90;99.90
18611;DHT22;9435;52.122;5.502;2023-07-31T07:33:17;17.00;99.90
18611;DHT22;9435;52.122;5.502;2023-07-31T07:35:44;17.00;99.90
18611;DHT22;9435;52.122;5.502;2023-07-31T07:38:11;17.00;99.90
18611;DHT22;9435;52.122;5.502;2023-07-31T07:40:39;17.00;99.90
18611;DHT22;9435;52.122;5.502;2023-07-31T07:43:08;17.00;99.90
18611;DHT22;9435;52.122;5.502;2023-07-31T07:45:35;17.00;99.90
18611;DHT22;9435;52.122;5.502;2023-07-31T07:48:02;17.10;99.90
18611;DHT22;9435;52.122;5.502;2023-07-31T07:50:29;17.10;99.90
18611;DHT22;9435;52.122;5.502;2023-07-31T07:52:57;17.10;99.90
18611;DHT22;9435;52.122;5.502;2023-07-31T07:55:24;17.20;99.90
18611;DHT22;9435;52.122;5.502;2023-07-31T07:57:51;17.20;99.90
18611;DHT22;9435;52.122;5.502;2023-07-31T08:00:19;17.20;99.90
18611;DHT22;9435;52.122;5.502;2023-07-31T08:02:46;17.30;99.90
18611;DHT22;9435;52.122;5.502;2023-07-31T08:05:13;17.20;99.90
18611;DHT22;9435;52.122;5.502;2023-07-31T08:07:40;17.30;99.90
18611;DHT22;9435;52.122;5.502;2023-07-31T08:10:08;17.30;99.90
18611;DHT22;9435;52.122;5.502;2023-07-31T08:12:35;17.30;99.90
18611;DHT22;9435;52.122;5.502;2023-07-31T08:15:02;17.30;99.90
18611;DHT22;9435;52.122;5.502;2023-07-31T08:17:31;17.30;99.90
18611;DHT22;9435;52.122;5.502;2023-07-31T08:19:58;17.30;99.90
18611;DHT22;9435;52.122;5.502;2023-07-31T08:22:25;17.40;99.90
18611;DHT22;9435;52.122;5.502;2023-07-31T08:24:52;17.40;99.90
18611;DHT22;9435;52.122;5.502;2023-07-31T08:27:19;17.50;99.90
18611;DHT22;9435;52.122;5.502;2023-07-31T08:29:46;17.50;99.90
18611;DHT22;9435;52.122;5.502;2023-07-31T08:32:13;17.60;99.90
18611;DHT22;9435;52.122;5.502;2023-07-31T08:34:42;17.60;99.90
18611;DHT22;9435;52.122;5.502;2023-07-31T08:37:10;17.70;99.90
18611;DHT22;9435;52.122;5.502;2023-07-31T08:39:37;17.70;99.90
18611;DHT22;9435;52.122;5.502;2023-07-31T08:42:08;17.70;99.90
18611;DHT22;9435;52.122;5.502;2023-07-31T08:44:35;17.70;99.90
18611;DHT22;9435;52.122;5.502;2023-07-31T08:47:04;17.70;99.90
18611;DHT22;9435;52.122;5.502;2023-07-31T08:49:31;17.80;99.90
18611;DHT22;9435;52.122;5.502;2023-07-31T08:52:00;17.80;99.90
18611;DHT22;9435;52.122;5.502;2023-07-31T08:54:29;17.80;99.90
18611;DHT22;9435;52.122;5.502;2023-07-31T08:56:59;17.80;99.90
18611;DHT22;9435;52.122;5.502;2023-07-31T08:59:28;17.90;99.90
18611;DHT22;9435;52.122;5.502;2023-07-31T09:01:58;18.00;99.90
18611;DHT22;9435;52.122;5.502;2023-07-31T09:04:27;18.00;99.90
18611;DHT22;9435;52.122;5.502;2023-07-31T09:06:59;18.00;99.90
18611;DHT22;9435;52.122;5.502;2023-07-31T09:09:28;18.00;99.90
18611;DHT22;9435;52.122;5.502;2023-07-31T09:11:55;18.00;99.90
18611;DHT22;9435;52.122;5.502;2023-07-31T09:14:24;18.20;99.90
18611;DHT22;9435;52.122;5.502;2023-07-31T09:16:53;18.20;99.90
18611;DHT22;9435;52.122;5.502;2023-07-31T09:19:28;18.40;99.90
18611;DHT22;9435;52.122;5.502;2023-07-31T09:21:56;18.30;99.90
18611;DHT22;9435;52.122;5.502;2023-07-31T09:24:28;18.40;99.90
18611;DHT22;9435;52.122;5.502;2023-07-31T09:26:56;18.30;99.90
18611;DHT22;9435;52.122;5.502;2023-07-31T09:29:24;18.30;99.90
18611;DHT22;9435;52.122;5.502;2023-07-31T09:31:53;18.30;99.90
18611;DHT22;9435;52.122;5.502;2023-07-31T09:34:29;18.20;99.90
18611;DHT22;9435;52.122;5.502;2023-07-31T09:37:01;18.30;99.90
18611;DHT22;9435;52.122;5.502;2023-07-31T09:39:29;18.30;99.90
18611;DHT22;9435;52.122;5.502;2023-07-31T09:41:57;18.30;99.90
18611;DHT22;9435;52.122;5.502;2023-07-31T09:44:38;18.30;99.90
18611;DHT22;9435;52.122;5.502;2023-07-31T09:47:06;18.30;99.90
18611;DHT22;9435;52.122;5.502;2023-07-31T09:49:33;18.30;99.90
18611;DHT22;9435;52.122;5.502;2023-07-31T09:52:00;18.40;99.90
18611;DHT22;9435;52.122;5.502;2023-07-31T09:54:29;18.50;99.90
18611;DHT22;9435;52.122;5.502;2023-07-31T09:56:57;18.50;99.90
18611;DHT22;9435;52.122;5.502;2023-07-31T09:59:25;18.60;99.90
18611;DHT22;9435;52.122;5.502;2023-07-31T10:01:54;18.70;99.90
18611;DHT22;9435;52.122;5.502;2023-07-31T10:04:24;18.70;99.90
18611;DHT22;9435;52.122;5.502;2023-07-31T10:06:54;18.80;99.90
18611;DHT22;9435;52.122;5.502;2023-07-31T10:09:23;18.90;99.90
18611;DHT22;9435;52.122;5.502;2023-07-31T10:11:59;18.90;99.90
18611;DHT22;9435;52.122;5.502;2023-07-31T10:14:26;18.90;99.90
18611;DHT22;9435;52.122;5.502;2023-07-31T10:16:55;18.90;99.90
18611;DHT22;9435;52.122;5.502;2023-07-31T10:19:23;19.00;99.90
18611;DHT22;9435;52.122;5.502;2023-07-31T10:21:50;18.90;99.90
18611;DHT22;9435;52.122;5.502;2023-07-31T10:24:18;18.90;99.90
18611;DHT22;9435;52.122;5.502;2023-07-31T10:26:47;18.80;99.90
18611;DHT22;9435;52.122;5.502;2023-07-31T10:29:17;18.90;99.90
18611;DHT22;9435;52.122;5.502;2023-07-31T10:31:46;18.90;99.90
18611;DHT22;9435;52.122;5.502;2023-07-31T10:34:15;19.00;99.90
18611;DHT22;9435;52.122;5.502;2023-07-31T10:36:43;19.00;99.90
18611;DHT22;9435;52.122;5.502;2023-07-31T10:39:34;18.90;99.90
18611;DHT22;9435;52.122;5.502;2023-07-31T10:42:10;18.90;99.90
18611;DHT22;9435;52.122;5.502;2023-07-31T10:44:43;18.90;99.90
18611;DHT22;9435;52.122;5.502;2023-07-31T10:47:14;18.80;99.90
18611;DHT22;9435;52.122;5.502;2023-07-31T10:49:41;18.80;99.90
18611;DHT22;9435;52.122;5.502;2023-07-31T10:52:12;18.90;99.90
18611;DHT22;9435;52.122;5.502;2023-07-31T10:54:40;19.00;99.90
18611;DHT22;9435;52.122;5.502;2023-07-31T10:57:19;19.10;99.90
18611;DHT22;9435;52.122;5.502;2023-07-31T10:59:48;19.20;99.90
18611;DHT22;9435;52.122;5.502;2023-07-31T11:02:25;19.20;99.90
18611;DHT22;9435;52.122;5.502;2023-07-31T11:05:08;19.20;99.90
18611;DHT22;9435;52.122;5.502;2023-07-31T11:07:48;19.20;99.90
18611;DHT22;9435;52.122;5.502;2023-07-31T11:10:18;19.20;99.90
18611;DHT22;9435;52.122;5.502;2023-07-31T11:12:46;19.30;99.90
18611;DHT22;9435;52.122;5.502;2023-07-31T11:15:14;19.40;99.90
18611;DHT22;9435;52.122;5.502;2023-07-31T11:17:41;19.30;99.90
18611;DHT22;9435;52.122;5.502;2023-07-31T11:20:09;19.40;99.90
18611;DHT22;9435;52.122;5.502;2023-07-31T11:22:37;19.40;99.90
18611;DHT22;9435;52.122;5.502;2023-07-31T11:25:04;19.40;99.90
18611;DHT22;9435;52.122;5.502;2023-07-31T11:27:38;19.40;99.90
18611;DHT22;9435;52.122;5.502;2023-07-31T11:30:06;19.30;99.90
18611;DHT22;9435;52.122;5.502;2023-07-31T11:32:36;19.30;99.90
18611;DHT22;9435;52.122;5.502;2023-07-31T11:35:03;19.20;99.90
18611;DHT22;9435;52.122;5.502;2023-07-31T11:37:40;19.10;99.90
18611;DHT22;9435;52.122;5.502;2023-07-31T11:40:08;19.10;99.90
18611;DHT22;9435;52.122;5.502;2023-07-31T11:42:36;19.10;99.90
18611;DHT22;9435;52.122;5.502;2023-07-31T11:45:03;19.20;99.90
18611;DHT22;9435;52.122;5.502;2023-07-31T11:47:33;19.00;99.90
18611;DHT22;9435;52.122;5.502;2023-07-31T11:50:01;19.00;99.90
18611;DHT22;9435;52.122;5.502;2023-07-31T11:52:29;19.00;99.90
18611;DHT22;9435;52.122;5.502;2023-07-31T11:54:57;19.00;99.90
18611;DHT22;9435;52.122;5.502;2023-07-31T11:57:25;19.00;99.90
18611;DHT22;9435;52.122;5.502;2023-07-31T11:59:52;19.00;99.90
18611;DHT22;9435;52.122;5.502;2023-07-31T12:02:20;19.00;99.90
18611;DHT22;9435;52.122;5.502;2023-07-31T12:04:49;19.00;99.90
18611;DHT22;9435;52.122;5.502;2023-07-31T12:07:16;19.10;99.90
18611;DHT22;9435;52.122;5.502;2023-07-31T12:09:52;19.00;99.90
18611;DHT22;9435;52.122;5.502;2023-07-31T12:12:20;19.10;99.90
18611;DHT22;9435;52.122;5.502;2023-07-31T12:14:47;19.10;99.90
18611;DHT22;9435;52.122;5.502;2023-07-31T12:17:17;19.10;99.90
18611;DHT22;9435;52.122;5.502;2023-07-31T12:19:45;19.10;99.90
18611;DHT22;9435;52.122;5.502;2023-07-31T12:22:15;19.20;99.90
18611;DHT22;9435;52.122;5.502;2023-07-31T12:24:43;19.20;99.90
18611;DHT22;9435;52.122;5.502;2023-07-31T12:27:11;19.20;99.90
18611;DHT22;9435;52.122;5.502;2023-07-31T12:29:39;19.20;99.90
18611;DHT22;9435;52.122;5.502;2023-07-31T12:32:21;19.30;99.90
18611;DHT22;9435;52.122;5.502;2023-07-31T12:34:49;19.40;99.90
18611;DHT22;9435;52.122;5.502;2023-07-31T12:37:18;19.40;99.90
18611;DHT22;9435;52.122;5.502;2023-07-31T12:39:45;19.40;99.90
18611;DHT22;9435;52.122;5.502;2023-07-31T12:42:12;19.50;99.90
18611;DHT22;9435;52.122;5.502;2023-07-31T12:44:39;19.40;99.90
18611;DHT22;9435;52.122;5.502;2023-07-31T12:47:06;19.40;99.90
18611;DHT22;9435;52.122;5.502;2023-07-31T12:49:33;19.40;99.90
18611;DHT22;9435;52.122;5.502;2023-07-31T12:52:00;19.40;99.90
18611;DHT22;9435;52.122;5.502;2023-07-31T12:54:28;19.40;99.90
18611;DHT22;9435;52.122;5.502;2023-07-31T12:56:55;19.40;99.90
18611;DHT22;9435;52.122;5.502;2023-07-31T12:59:22;19.40;99.90
18611;DHT22;9435;52.122;5.502;2023-07-31T13:01:49;19.40;99.90
18611;DHT22;9435;52.122;5.502;2023-07-31T13:04:16;19.40;99.90
18611;DHT22;9435;52.122;5.502;2023-07-31T13:06:43;19.50;99.90
18611;DHT22;9435;52.122;5.502;2023-07-31T13:09:11;19.50;99.90
18611;DHT22;9435;52.122;5.502;2023-07-31T13:11:39;19.60;99.90
18611;DHT22;9435;52.122;5.502;2023-07-31T13:14:06;19.60;99.90
18611;DHT22;9435;52.122;5.502;2023-07-31T13:16:33;19.60;99.90
18611;DHT22;9435;52.122;5.502;2023-07-31T13:19:01;19.50;99.90
18611;DHT22;9435;52.122;5.502;2023-07-31T13:21:28;19.60;99.90
18611;DHT22;9435;52.122;5.502;2023-07-31T13:23:55;19.60;99.90
18611;DHT22;9435;52.122;5.502;2023-07-31T13:26:23;19.70;99.90
18611;DHT22;9435;52.122;5.502;2023-07-31T13:28:52;19.70;99.90
18611;DHT22;9435;52.122;5.502;2023-07-31T13:31:19;19.80;99.90
18611;DHT22;9435;52.122;5.502;2023-07-31T13:33:46;19.80;99.90
18611;DHT22;9435;52.122;5.502;2023-07-31T13:36:13;19.80;99.90
18611;DHT22;9435;52.122;5.502;2023-07-31T13:38:40;19.80;99.90
18611;DHT22;9435;52.122;5.502;2023-07-31T13:41:07;19.80;99.90
18611;DHT22;9435;52.122;5.502;2023-07-31T13:43:34;19.70;99.90
18611;DHT22;9435;52.122;5.502;2023-07-31T13:46:03;19.70;99.90
18611;DHT22;9435;52.122;5.502;2023-07-31T13:48:33;19.70;99.90
18611;DHT22;9435;52.122;5.502;2023-07-31T13:51:00;19.70;99.90
18611;DHT22;9435;52.122;5.502;2023-07-31T13:53:27;19.70;99.90
18611;DHT22;9435;52.122;5.502;2023-07-31T13:55:54;19.50;99.90
18611;DHT22;9435;52.122;5.502;2023-07-31T13:58:21;19.50;99.90
18611;DHT22;9435;52.122;5.502;2023-07-31T14:00:50;19.50;99.90
18611;DHT22;9435;52.122;5.502;2023-07-31T14:03:20;19.50;99.90
18611;DHT22;9435;52.122;5.502;2023-07-31T14:05:47;19.40;99.90
18611;DHT22;9435;52.122;5.502;2023-07-31T14:08:14;19.40;99.90
18611;DHT22;9435;52.122;5.502;2023-07-31T14:10:41;19.40;99.90
18611;DHT22;9435;52.122;5.502;2023-07-31T14:13:08;19.40;99.90
18611;DHT22;9435;52.122;5.502;2023-07-31T14:15:35;19.40;99.90
18611;DHT22;9435;52.122;5.502;2023-07-31T14:18:02;19.30;99.90
18611;DHT22;9435;52.122;5.502;2023-07-31T14:20:31;19.20;99.90
18611;DHT22;9435;52.122;5.502;2023-07-31T14:22:58;19.30;99.90
18611;DHT22;9435;52.122;5.502;2023-07-31T14:25:25;19.20;99.90
18611;DHT22;9435;52.122;5.502;2023-07-31T14:27:52;19.20;99.90
18611;DHT22;9435;52.122;5.502;2023-07-31T14:30:19;19.20;99.90
18611;DHT22;9435;52.122;5.502;2023-07-31T14:32:47;19.30;99.90
18611;DHT22;9435;52.122;5.502;2023-07-31T14:35:14;19.20;99.90
18611;DHT22;9435;52.122;5.502;2023-07-31T14:37:43;19.20;99.90
18611;DHT22;9435;52.122;5.502;2023-07-31T14:40:12;19.20;99.90
18611;DHT22;9435;52.122;5.502;2023-07-31T14:42:39;19.10;99.90
18611;DHT22;9435;52.122;5.502;2023-07-31T14:45:07;19.20;99.90
18611;DHT22;9435;52.122;5.502;2023-07-31T14:47:35;19.20;99.90
18611;DHT22;9435;52.122;5.502;2023-07-31T14:50:03;19.20;99.90
18611;DHT22;9435;52.122;5.502;2023-07-31T14:52:31;19.20;99.90
18611;DHT22;9435;52.122;5.502;2023-07-31T14:54:59;19.20;99.90
18611;DHT22;9435;52.122;5.502;2023-07-31T14:57:26;19.20;99.90
18611;DHT22;9435;52.122;5.502;2023-07-31T14:59:53;19.20;99.90
18611;DHT22;9435;52.122;5.502;2023-07-31T15:02:20;19.10;99.90
18611;DHT22;9435;52.122;5.502;2023-07-31T15:04:48;19.10;99.90
18611;DHT22;9435;52.122;5.502;2023-07-31T15:07:15;19.10;99.90
18611;DHT22;9435;52.122;5.502;2023-07-31T15:09:42;19.10;99.90
18611;DHT22;9435;52.122;5.502;2023-07-31T15:12:10;19.10;99.90
18611;DHT22;9435;52.122;5.502;2023-07-31T15:14:37;19.00;99.90
18611;DHT22;9435;52.122;5.502;2023-07-31T15:17:05;19.00;99.90
18611;DHT22;9435;52.122;5.502;2023-07-31T15:19:32;19.00;99.90
18611;DHT22;9435;52.122;5.502;2023-07-31T15:22:00;19.00;99.90
18611;DHT22;9435;52.122;5.502;2023-07-31T15:24:27;19.00;99.90
18611;DHT22;9435;52.122;5.502;2023-07-31T15:26:54;18.90;99.90
18611;DHT22;9435;52.122;5.502;2023-07-31T15:29:23;18.90;99.90
18611;DHT22;9435;52.122;5.502;2023-07-31T15:31:50;18.90;99.90
18611;DHT22;9435;52.122;5.502;2023-07-31T15:34:17;18.90;99.90
18611;DHT22;9435;52.122;5.502;2023-07-31T15:36:45;18.90;99.90
18611;DHT22;9435;52.122;5.502;2023-07-31T15:39:12;18.80;99.90
18611;DHT22;9435;52.122;5.502;2023-07-31T15:41:40;18.90;99.90
18611;DHT22;9435;52.122;5.502;2023-07-31T15:44:07;18.80;99.90
18611;DHT22;9435;52.122;5.502;2023-07-31T15:46:36;18.80;99.90
18611;DHT22;9435;52.122;5.502;2023-07-31T15:49:03;18.80;99.90